Time;durP1;ratioP1;P1;durP2;ratioP2;P2;SDS_P1;SDS_P2;PMS_P1;PMS_P2;Temp;Humidity;BMP_temperature;BMP_pressure;BME280_temperature;BME280_humidity;BME280_pressure;Samples;Min_cycle;Max_cycle;Signal;HPM_P1;HPM_P2
2022/03/08 00:02:09;;;;;;;7.90;5.18;;;;;;;;;;4962674;28;20605;-76
2022/03/08 00:04:35;;;;;;;6.82;3.85;;;;;;;;;;4951563;28;20038;-76
2022/03/08 00:07:01;;;;;;;5.55;3.78;;;;;;;;;;4947467;28;20558;-76
2022/03/08 00:09:27;;;;;;;7.43;4.43;;;;;;;;;;4950269;28;20050;-76
2022/03/08 00:11:53;;;;;;;7.75;4.43;;;;;;;;;;4955247;28;20392;-76
2022/03/08 00:14:19;;;;;;;6.82;4.80;;;;;;;;;;4963725;28;20049;-76
2022/03/08 00:16:45;;;;;;;7.15;5.45;;;;;;;;;;4947226;28;20050;-76
2022/03/08 00:19:11;;;;;;;9.93;5.85;;;;;;;;;;4947095;28;20562;-76
2022/03/08 00:21:37;;;;;;;9.90;5.30;;;;;;;;;;4963734;28;20039;-76
2022/03/08 00:24:03;;;;;;;13.10;6.30;;;;;;;;;;4959536;28;20134;-76
2022/03/08 00:26:29;;;;;;;7.70;4.70;;;;;;;;;;4947887;28;20042;-76
2022/03/08 00:28:55;;;;;;;8.60;4.50;;;;;;;;;;4963668;28;20516;-76
2022/03/08 00:31:20;;;;;;;9.68;4.95;;;;;;;;;;4959584;28;20043;-76
2022/03/08 00:33:46;;;;;;;8.23;4.05;;;;;;;;;;4951141;28;20466;-76
2022/03/08 00:36:12;;;;;;;8.45;4.20;;;;;;;;;;4978361;28;20046;-76
2022/03/08 00:38:38;;;;;;;5.10;3.85;;;;;;;;;;4947782;28;20411;-76
2022/03/08 00:41:03;;;;;;;6.40;3.53;;;;;;;;;;4962908;28;20035;-76
2022/03/08 00:43:29;;;;;;;7.63;4.90;;;;;;;;;;4946947;28;20046;-76
2022/03/08 00:45:55;;;;;;;9.23;4.80;;;;;;;;;;4960820;28;20065;-76
2022/03/08 00:48:21;;;;;;;8.35;5.03;;;;;;;;;;4944893;28;20059;-76
2022/03/08 00:50:47;;;;;;;6.63;4.65;;;;;;;;;;4946503;28;20527;-76
2022/03/08 00:53:13;;;;;;;8.60;5.40;;;;;;;;;;4945100;28;20044;-76
2022/03/08 00:55:39;;;;;;;10.55;5.90;;;;;;;;;;4944322;28;20067;-76
2022/03/08 00:58:06;;;;;;;12.18;6.57;;;;;;;;;;4957281;28;20039;-76
2022/03/08 01:00:34;;;;;;;12.55;7.28;;;;;;;;;;4957965;28;20039;-76
2022/03/08 01:02:59;;;;;;;10.75;5.97;;;;;;;;;;4949373;28;20039;-76
2022/03/08 01:05:26;;;;;;;12.23;6.63;;;;;;;;;;4941897;28;20043;-76
2022/03/08 01:07:52;;;;;;;9.63;6.57;;;;;;;;;;4927466;28;20527;-76
2022/03/08 01:10:21;;;;;;;9.93;5.60;;;;;;;;;;4946266;28;20035;-76
2022/03/08 01:12:48;;;;;;;10.68;6.32;;;;;;;;;;4961618;28;20054;-76
2022/03/08 01:15:14;;;;;;;10.35;6.47;;;;;;;;;;4952502;28;20527;-76
2022/03/08 01:17:40;;;;;;;11.32;6.35;;;;;;;;;;4963739;28;20097;-76
2022/03/08 01:20:07;;;;;;;7.82;5.10;;;;;;;;;;4944002;28;20399;-76
2022/03/08 01:22:33;;;;;;;11.00;4.97;;;;;;;;;;4925627;28;20119;-76
2022/03/08 01:24:59;;;;;;;10.20;6.72;;;;;;;;;;4940687;28;20047;-76
2022/03/08 01:27:24;;;;;;;11.18;6.80;;;;;;;;;;4953875;28;20049;-76
2022/03/08 01:29:50;;;;;;;19.17;9.70;;;;;;;;;;4960216;28;20412;-76
2022/03/08 01:32:16;;;;;;;20.88;9.55;;;;;;;;;;4959539;28;20061;-76
2022/03/08 01:34:42;;;;;;;18.35;11.02;;;;;;;;;;4977700;28;20047;-76
2022/03/08 01:37:07;;;;;;;20.98;11.07;;;;;;;;;;4948469;28;20062;-76
2022/03/08 01:39:34;;;;;;;17.85;9.75;;;;;;;;;;4947143;28;20484;-76
2022/03/08 01:42:10;;;;;;;18.63;9.00;;;;;;;;;;4958895;28;20378;-76
2022/03/08 01:44:36;;;;;;;16.92;8.32;;;;;;;;;;4984928;28;20506;-76
2022/03/08 01:47:02;;;;;;;12.95;7.57;;;;;;;;;;4961484;28;20070;-76
2022/03/08 01:49:27;;;;;;;10.60;7.45;;;;;;;;;;4927096;28;20048;-76
2022/03/08 01:51:54;;;;;;;11.13;7.07;;;;;;;;;;4960213;28;20121;-76
2022/03/08 01:54:19;;;;;;;10.35;6.20;;;;;;;;;;4944287;28;20560;-76
2022/03/08 01:56:45;;;;;;;9.35;5.60;;;;;;;;;;4942262;28;20318;-76
2022/03/08 01:59:11;;;;;;;14.43;6.75;;;;;;;;;;4935554;28;20059;-76
2022/03/08 02:01:36;;;;;;;11.05;7.28;;;;;;;;;;4946903;28;20046;-76
2022/03/08 02:04:02;;;;;;;11.63;7.00;;;;;;;;;;4960575;28;20067;-76
2022/03/08 02:06:28;;;;;;;12.50;7.80;;;;;;;;;;4943369;28;20039;-76
2022/03/08 02:08:54;;;;;;;12.45;7.65;;;;;;;;;;4949976;28;20325;-76
2022/03/08 02:11:22;;;;;;;10.55;7.18;;;;;;;;;;4942935;28;20121;-76
2022/03/08 02:13:47;;;;;;;12.10;6.75;;;;;;;;;;4934482;28;20034;-76
2022/03/08 02:16:14;;;;;;;9.50;6.97;;;;;;;;;;4934841;28;20142;-76
2022/03/08 02:18:40;;;;;;;10.07;6.93;;;;;;;;;;4951371;28;20508;-76
2022/03/08 02:21:06;;;;;;;10.02;6.90;;;;;;;;;;4937614;28;20146;-78
2022/03/08 02:23:32;;;;;;;10.40;6.20;;;;;;;;;;4958264;28;20049;-78
2022/03/08 02:25:58;;;;;;;10.23;5.53;;;;;;;;;;4952247;28;20038;-78
2022/03/08 02:28:23;;;;;;;7.20;5.05;;;;;;;;;;4958347;28;20676;-78
2022/03/08 02:30:49;;;;;;;8.23;5.18;;;;;;;;;;4963680;28;20362;-78
2022/03/08 02:33:15;;;;;;;9.52;5.65;;;;;;;;;;4950277;28;20130;-78
2022/03/08 02:35:40;;;;;;;8.98;5.85;;;;;;;;;;4959419;28;20063;-78
2022/03/08 02:38:06;;;;;;;10.27;6.18;;;;;;;;;;4960484;28;20039;-78
2022/03/08 02:40:35;;;;;;;10.02;5.95;;;;;;;;;;4945294;28;20031;-78
2022/03/08 02:43:02;;;;;;;8.45;5.38;;;;;;;;;;4970189;28;20047;-78
2022/03/08 02:45:28;;;;;;;8.05;5.53;;;;;;;;;;4962079;28;20132;-78
2022/03/08 02:47:53;;;;;;;8.15;5.05;;;;;;;;;;4946630;28;20515;-78
2022/03/08 02:50:20;;;;;;;6.82;5.30;;;;;;;;;;4951347;28;20066;-78
2022/03/08 02:52:51;;;;;;;8.32;3.92;;;;;;;;;;4960453;28;20497;-78
2022/03/08 02:55:17;;;;;;;11.48;4.38;;;;;;;;;;4945838;28;20047;-78
2022/03/08 02:57:43;;;;;;;7.53;4.43;;;;;;;;;;4960072;28;20047;-78
2022/03/08 03:00:11;;;;;;;5.70;4.38;;;;;;;;;;4955067;28;20047;-78
2022/03/08 03:02:37;;;;;;;8.48;4.55;;;;;;;;;;4957586;28;20088;-78
2022/03/08 03:05:03;;;;;;;7.63;4.28;;;;;;;;;;4961683;28;20043;-78
2022/03/08 03:07:29;;;;;;;9.18;5.32;;;;;;;;;;4966946;28;20039;-78
2022/03/08 03:09:55;;;;;;;7.82;4.93;;;;;;;;;;4957682;28;20049;-78
2022/03/08 03:12:21;;;;;;;10.57;5.63;;;;;;;;;;4965313;28;20054;-78
2022/03/08 03:14:46;;;;;;;7.28;4.70;;;;;;;;;;4966582;28;20038;-83
2022/03/08 03:17:12;;;;;;;7.28;4.78;;;;;;;;;;4963035;28;20090;-82
2022/03/08 03:19:38;;;;;;;8.77;5.28;;;;;;;;;;4966173;28;20043;-82
2022/03/08 03:22:04;;;;;;;9.18;6.18;;;;;;;;;;4956692;28;20067;-82
2022/03/08 03:24:29;;;;;;;11.80;6.53;;;;;;;;;;4960755;28;20500;-82
2022/03/08 03:26:55;;;;;;;10.13;5.95;;;;;;;;;;4959766;28;20049;-82
2022/03/08 03:29:21;;;;;;;10.15;6.05;;;;;;;;;;4935045;28;20393;-82
2022/03/08 03:31:47;;;;;;;10.25;5.72;;;;;;;;;;4956867;28;20217;-82
2022/03/08 03:34:12;;;;;;;10.85;5.20;;;;;;;;;;4957250;28;20779;-82
2022/03/08 03:36:38;;;;;;;8.60;5.43;;;;;;;;;;4958304;28;20097;-82
2022/03/08 03:39:05;;;;;;;9.75;4.80;;;;;;;;;;4956222;28;20092;-81
2022/03/08 03:41:31;;;;;;;7.75;5.63;;;;;;;;;;4947099;28;20059;-82
2022/03/08 03:43:57;;;;;;;8.88;4.75;;;;;;;;;;4943613;28;20617;-78
2022/03/08 03:46:22;;;;;;;11.38;6.15;;;;;;;;;;4954749;28;20039;-78
2022/03/08 03:48:48;;;;;;;8.05;5.18;;;;;;;;;;4945934;28;20468;-78
2022/03/08 03:51:16;;;;;;;12.48;5.43;;;;;;;;;;4952471;28;20283;-77
2022/03/08 03:53:42;;;;;;;8.93;5.43;;;;;;;;;;4953720;28;20097;-78
2022/03/08 03:56:07;;;;;;;10.82;5.07;;;;;;;;;;4971412;28;20067;-78
2022/03/08 03:58:33;;;;;;;8.23;4.72;;;;;;;;;;4929946;28;20047;-77
2022/03/08 04:00:59;;;;;;;11.07;6.43;;;;;;;;;;4954860;28;20105;-78
2022/03/08 04:03:24;;;;;;;7.55;5.50;;;;;;;;;;4952828;28;20495;-78
2022/03/08 04:05:50;;;;;;;9.45;5.05;;;;;;;;;;4964498;28;20093;-78
2022/03/08 04:08:20;;;;;;;6.53;4.65;;;;;;;;;;4965418;28;20073;-78
2022/03/08 04:10:46;;;;;;;8.90;5.55;;;;;;;;;;4964661;28;20058;-78
2022/03/08 04:13:12;;;;;;;9.55;4.97;;;;;;;;;;4959614;28;20046;-78
2022/03/08 04:15:37;;;;;;;8.27;5.10;;;;;;;;;;4943724;28;20067;-78
2022/03/08 04:18:03;;;;;;;7.70;5.00;;;;;;;;;;4946533;28;20047;-77
2022/03/08 04:20:29;;;;;;;7.43;4.90;;;;;;;;;;4943512;28;20039;-78
2022/03/08 04:22:55;;;;;;;8.48;5.60;;;;;;;;;;4958975;28;20063;-78
2022/03/08 04:25:21;;;;;;;7.88;5.47;;;;;;;;;;4947464;28;20080;-78
2022/03/08 04:27:47;;;;;;;9.82;5.55;;;;;;;;;;4943887;28;20092;-78
2022/03/08 04:30:13;;;;;;;8.52;4.95;;;;;;;;;;4954466;28;20035;-78
2022/03/08 04:32:39;;;;;;;9.07;5.43;;;;;;;;;;4943892;28;20043;-77
2022/03/08 04:35:05;;;;;;;9.02;5.18;;;;;;;;;;4953822;28;20042;-78
2022/03/08 04:37:31;;;;;;;9.63;4.97;;;;;;;;;;4959916;28;20031;-78
2022/03/08 04:39:57;;;;;;;10.23;5.10;;;;;;;;;;4944089;28;20070;-78
2022/03/08 04:42:22;;;;;;;11.40;5.40;;;;;;;;;;4937046;28;20065;-77
2022/03/08 04:44:48;;;;;;;6.90;5.28;;;;;;;;;;4954579;28;20438;-78
2022/03/08 04:47:14;;;;;;;7.20;5.20;;;;;;;;;;4948516;28;20039;-78
2022/03/08 04:49:40;;;;;;;7.05;5.50;;;;;;;;;;4938688;28;20054;-77
2022/03/08 04:52:05;;;;;;;6.38;4.97;;;;;;;;;;4951858;28;20040;-78
2022/03/08 04:54:31;;;;;;;8.80;5.80;;;;;;;;;;4964349;28;20039;-78
2022/03/08 04:56:57;;;;;;;9.02;5.80;;;;;;;;;;4958976;28;20043;-77
2022/03/08 04:59:22;;;;;;;8.65;5.78;;;;;;;;;;4944962;28;20576;-78
2022/03/08 05:01:49;;;;;;;7.30;5.43;;;;;;;;;;4963360;28;20077;-78
2022/03/08 05:04:15;;;;;;;8.13;4.80;;;;;;;;;;4949552;28;20039;-78
2022/03/08 05:06:41;;;;;;;9.40;5.35;;;;;;;;;;4932165;28;20031;-78
2022/03/08 05:09:07;;;;;;;6.30;5.00;;;;;;;;;;4945576;28;20035;-78
2022/03/08 05:11:33;;;;;;;6.85;4.93;;;;;;;;;;4943498;28;20439;-78
2022/03/08 05:13:59;;;;;;;8.48;4.88;;;;;;;;;;4951627;28;20047;-78
2022/03/08 05:16:24;;;;;;;8.63;5.78;;;;;;;;;;4951961;28;20043;-78
2022/03/08 05:18:50;;;;;;;8.82;5.72;;;;;;;;;;4962905;28;20110;-78
2022/03/08 05:21:16;;;;;;;7.45;4.82;;;;;;;;;;4963476;28;20039;-78
2022/03/08 05:23:42;;;;;;;8.55;4.63;;;;;;;;;;4947620;28;20118;-78
2022/03/08 05:26:08;;;;;;;8.55;5.50;;;;;;;;;;4962928;28;20125;-78
2022/03/08 05:28:33;;;;;;;7.22;5.15;;;;;;;;;;4962561;28;21542;-78
2022/03/08 05:30:59;;;;;;;5.72;4.43;;;;;;;;;;4952424;28;20077;-78
2022/03/08 05:33:25;;;;;;;6.95;4.90;;;;;;;;;;4943084;28;20062;-78
2022/03/08 05:35:50;;;;;;;7.13;4.65;;;;;;;;;;4936912;28;20130;-78
2022/03/08 05:38:17;;;;;;;5.55;4.07;;;;;;;;;;4939389;28;20050;-78
2022/03/08 05:40:43;;;;;;;9.43;5.00;;;;;;;;;;4939559;28;20032;-78
2022/03/08 05:43:08;;;;;;;5.75;4.03;;;;;;;;;;4934799;28;20071;-78
2022/03/08 05:45:34;;;;;;;9.55;4.35;;;;;;;;;;4958326;28;20106;-78
2022/03/08 05:48:00;;;;;;;7.43;4.80;;;;;;;;;;4952490;28;20964;-78
2022/03/08 05:50:26;;;;;;;9.48;4.75;;;;;;;;;;4935579;28;20537;-78
2022/03/08 05:52:51;;;;;;;7.65;4.43;;;;;;;;;;4953235;28;20043;-78
2022/03/08 05:55:17;;;;;;;6.72;4.90;;;;;;;;;;4959733;28;20038;-78
2022/03/08 05:57:43;;;;;;;6.60;4.18;;;;;;;;;;4952138;28;20505;-79
2022/03/08 06:00:09;;;;;;;5.38;4.35;;;;;;;;;;4943737;28;20043;-79
2022/03/08 06:02:35;;;;;;;11.55;8.13;;;;;;;;;;4938291;28;20050;-79
2022/03/08 06:05:01;;;;;;;16.50;8.57;;;;;;;;;;4958753;28;20101;-78
2022/03/08 06:07:27;;;;;;;11.95;7.10;;;;;;;;;;4950426;28;20043;-80
2022/03/08 06:09:53;;;;;;;12.40;7.00;;;;;;;;;;4950744;28;20031;-79
2022/03/08 06:12:18;;;;;;;12.50;6.70;;;;;;;;;;4958511;28;20063;-78
2022/03/08 06:14:44;;;;;;;8.10;5.88;;;;;;;;;;4956934;28;20291;-78
2022/03/08 06:17:10;;;;;;;6.40;5.15;;;;;;;;;;4993512;28;20053;-78
2022/03/08 06:19:35;;;;;;;8.85;6.05;;;;;;;;;;4954277;28;20067;-78
2022/03/08 06:22:01;;;;;;;11.18;6.32;;;;;;;;;;4961971;28;20438;-77
2022/03/08 06:24:27;;;;;;;9.07;6.47;;;;;;;;;;4962483;28;20488;-77
2022/03/08 06:26:53;;;;;;;17.50;10.30;;;;;;;;;;4961676;28;20074;-79
2022/03/08 06:29:18;;;;;;;26.73;12.70;;;;;;;;;;4946151;28;20039;-77
2022/03/08 06:31:44;;;;;;;30.88;14.45;;;;;;;;;;4938187;28;20058;-77
2022/03/08 06:34:10;;;;;;;22.70;12.82;;;;;;;;;;4959139;28;20043;-77
2022/03/08 06:36:36;;;;;;;18.67;11.80;;;;;;;;;;4958111;28;20046;-77
2022/03/08 06:39:03;;;;;;;28.60;14.93;;;;;;;;;;4938987;28;20130;-78
2022/03/08 06:41:28;;;;;;;77.88;35.60;;;;;;;;;;4945877;28;20086;-77
2022/03/08 06:43:54;;;;;;;103.80;46.90;;;;;;;;;;4951489;28;20047;-77
2022/03/08 06:46:20;;;;;;;63.05;32.17;;;;;;;;;;4938927;28;20035;-77
2022/03/08 06:48:46;;;;;;;39.15;21.38;;;;;;;;;;4942196;28;20090;-77
2022/03/08 06:51:13;;;;;;;23.20;14.35;;;;;;;;;;4960185;28;20050;-79
2022/03/08 06:53:39;;;;;;;25.27;15.90;;;;;;;;;;4954100;28;20772;-78
2022/03/08 06:56:05;;;;;;;26.17;13.90;;;;;;;;;;4953305;28;20109;-78
2022/03/08 06:58:31;;;;;;;16.33;11.32;;;;;;;;;;4943917;28;20045;-78
2022/03/08 07:00:56;;;;;;;36.97;19.75;;;;;;;;;;4934030;28;20129;-76
2022/03/08 07:03:22;;;;;;;26.27;17.15;;;;;;;;;;4968964;28;20073;-77
2022/03/08 07:05:48;;;;;;;29.02;17.02;;;;;;;;;;4955215;28;20500;-79
2022/03/08 07:08:14;;;;;;;25.25;17.23;;;;;;;;;;4946100;28;20493;-79
2022/03/08 07:10:39;;;;;;;27.00;16.33;;;;;;;;;;4946553;28;20074;-77
2022/03/08 07:13:05;;;;;;;21.95;13.25;;;;;;;;;;4947522;28;20563;-77
2022/03/08 07:15:31;;;;;;;22.25;14.80;;;;;;;;;;4945763;28;20146;-77
2022/03/08 07:17:57;;;;;;;23.73;15.52;;;;;;;;;;4942921;28;20066;-79
2022/03/08 07:20:23;;;;;;;24.83;15.73;;;;;;;;;;4922280;28;20069;-77
2022/03/08 07:22:49;;;;;;;22.58;14.13;;;;;;;;;;4948722;28;20556;-78
2022/03/08 07:25:16;;;;;;;21.38;13.10;;;;;;;;;;4961386;28;20042;-78
2022/03/08 07:27:42;;;;;;;15.60;10.45;;;;;;;;;;4958844;28;20089;-80
2022/03/08 07:30:09;;;;;;;21.35;10.38;;;;;;;;;;4955694;28;20035;-80
2022/03/08 07:32:35;;;;;;;14.88;9.98;;;;;;;;;;4940707;28;20381;-79
2022/03/08 07:35:00;;;;;;;14.98;9.35;;;;;;;;;;4957071;28;20102;-79
2022/03/08 07:37:26;;;;;;;14.20;9.82;;;;;;;;;;4956784;28;20039;-79
2022/03/08 07:39:55;;;;;;;16.52;9.93;;;;;;;;;;4963109;28;20118;-79
2022/03/08 07:42:21;;;;;;;19.33;10.18;;;;;;;;;;4959610;28;20039;-78
2022/03/08 07:44:47;;;;;;;24.35;10.77;;;;;;;;;;4953938;28;20584;-78
2022/03/08 07:47:12;;;;;;;23.27;10.48;;;;;;;;;;4956824;28;20094;-78
2022/03/08 07:49:38;;;;;;;15.05;10.20;;;;;;;;;;4954524;28;20054;-77
2022/03/08 07:52:04;;;;;;;14.45;9.07;;;;;;;;;;4963720;28;20047;-77
2022/03/08 07:54:30;;;;;;;9.70;7.65;;;;;;;;;;4949009;28;20034;-77
2022/03/08 07:56:56;;;;;;;12.45;8.73;;;;;;;;;;4947423;28;20590;-77
2022/03/08 07:59:21;;;;;;;13.73;7.65;;;;;;;;;;4949763;28;20074;-77
2022/03/08 08:01:47;;;;;;;13.00;7.75;;;;;;;;;;4951544;28;20601;-77
2022/03/08 08:04:13;;;;;;;12.25;7.50;;;;;;;;;;4959662;28;20122;-80
2022/03/08 08:06:38;;;;;;;12.38;7.88;;;;;;;;;;4951198;28;20061;-77
2022/03/08 08:09:05;;;;;;;9.38;7.55;;;;;;;;;;4953258;28;20300;-76
2022/03/08 08:11:31;;;;;;;11.57;6.55;;;;;;;;;;4958501;28;20546;-77
2022/03/08 08:13:57;;;;;;;13.27;7.03;;;;;;;;;;4961953;28;20062;-79
2022/03/08 08:16:26;;;;;;;12.00;7.05;;;;;;;;;;4948119;28;20125;-78
2022/03/08 08:18:51;;;;;;;10.32;7.00;;;;;;;;;;4963239;28;20046;-79
2022/03/08 08:21:17;;;;;;;11.25;6.82;;;;;;;;;;4965608;28;20134;-79
2022/03/08 08:23:43;;;;;;;14.68;7.28;;;;;;;;;;4951687;28;20499;-79
2022/03/08 08:26:09;;;;;;;10.95;6.53;;;;;;;;;;4923831;28;20050;-79
2022/03/08 08:28:35;;;;;;;14.15;8.77;;;;;;;;;;4951561;28;20031;-79
2022/03/08 08:31:00;;;;;;;20.17;12.43;;;;;;;;;;4934305;28;20046;-78
2022/03/08 08:33:26;;;;;;;19.65;11.07;;;;;;;;;;4912049;28;20094;-79
2022/03/08 08:35:52;;;;;;;11.25;6.90;;;;;;;;;;4936333;28;20042;-79
2022/03/08 08:38:18;;;;;;;10.25;5.90;;;;;;;;;;4966411;28;20559;-79
2022/03/08 08:40:43;;;;;;;8.10;5.63;;;;;;;;;;4910223;28;20067;-78
2022/03/08 08:43:09;;;;;;;10.30;6.28;;;;;;;;;;4946696;28;20054;-79
2022/03/08 08:45:35;;;;;;;8.80;5.75;;;;;;;;;;4945073;28;20059;-79
2022/03/08 08:48:05;;;;;;;9.43;5.93;;;;;;;;;;4949947;28;20043;-79
2022/03/08 08:50:31;;;;;;;10.38;6.47;;;;;;;;;;4960609;28;20059;-79
2022/03/08 08:52:57;;;;;;;10.80;6.10;;;;;;;;;;4938470;28;20062;-80
2022/03/08 08:55:24;;;;;;;10.48;6.95;;;;;;;;;;4958706;28;20046;-80
2022/03/08 08:57:49;;;;;;;9.85;5.60;;;;;;;;;;4937152;28;20039;-79
2022/03/08 09:00:15;;;;;;;7.70;5.40;;;;;;;;;;4943169;28;20074;-80
2022/03/08 09:02:43;;;;;;;9.30;5.32;;;;;;;;;;4950568;28;20097;-79
2022/03/08 09:05:09;;;;;;;8.60;5.22;;;;;;;;;;4939000;28;20047;-79
2022/03/08 09:07:35;;;;;;;8.98;4.97;;;;;;;;;;4935650;28;20665;-81
2022/03/08 09:10:00;;;;;;;11.93;5.70;;;;;;;;;;4960610;28;20082;-81
2022/03/08 09:12:26;;;;;;;7.65;5.40;;;;;;;;;;4936227;28;20039;-80
2022/03/08 09:14:52;;;;;;;10.27;5.30;;;;;;;;;;4946786;28;20090;-80
2022/03/08 09:17:17;;;;;;;9.02;5.43;;;;;;;;;;4946845;28;20409;-80
2022/03/08 09:19:43;;;;;;;7.30;5.18;;;;;;;;;;4965097;28;20125;-79
2022/03/08 09:22:09;;;;;;;8.00;5.03;;;;;;;;;;4941539;28;20098;-79
2022/03/08 09:24:37;;;;;;;8.35;4.30;;;;;;;;;;4934738;28;20051;-80
2022/03/08 09:27:03;;;;;;;7.82;4.25;;;;;;;;;;4987532;28;20055;-80
2022/03/08 09:29:29;;;;;;;8.68;3.28;;;;;;;;;;4958539;28;20694;-80
2022/03/08 09:31:55;;;;;;;9.77;2.80;;;;;;;;;;4943801;28;20062;-79
2022/03/08 09:34:21;;;;;;;5.60;2.72;;;;;;;;;;4966663;28;20042;-78
2022/03/08 09:36:47;;;;;;;8.80;2.75;;;;;;;;;;4967743;28;20121;-79
2022/03/08 09:39:13;;;;;;;3.88;2.50;;;;;;;;;;4961454;28;20063;-78
2022/03/08 09:41:41;;;;;;;4.22;2.20;;;;;;;;;;4952600;28;20053;-78
2022/03/08 09:44:12;;;;;;;4.53;2.20;;;;;;;;;;4958763;28;20098;-78
2022/03/08 09:46:38;;;;;;;5.28;1.92;;;;;;;;;;4958011;28;20038;-78
2022/03/08 09:49:04;;;;;;;4.70;2.60;;;;;;;;;;4937075;28;20039;-79
2022/03/08 09:51:30;;;;;;;4.53;2.35;;;;;;;;;;4945990;28;20039;-79
2022/03/08 09:53:55;;;;;;;5.57;2.92;;;;;;;;;;4947847;28;20047;-79
2022/03/08 09:56:21;;;;;;;8.55;2.70;;;;;;;;;;4945352;28;20066;-78
2022/03/08 09:58:47;;;;;;;5.57;2.65;;;;;;;;;;4944334;28;20038;-79
2022/03/08 10:01:13;;;;;;;4.72;2.63;;;;;;;;;;4931242;28;20054;-79
2022/03/08 10:03:42;;;;;;;5.90;2.50;;;;;;;;;;4941507;28;20481;-79
2022/03/08 10:06:08;;;;;;;3.70;2.40;;;;;;;;;;4938103;28;20567;-79
2022/03/08 10:08:35;;;;;;;3.63;2.15;;;;;;;;;;4958527;28;20035;-79
2022/03/08 10:11:03;;;;;;;5.55;2.47;;;;;;;;;;4938598;28;20050;-79
2022/03/08 10:13:35;;;;;;;3.70;2.63;;;;;;;;;;4951222;28;20065;-79
2022/03/08 10:16:41;;;;;;;5.00;2.25;;;;;;;;;;4931070;28;20039;-78
2022/03/08 10:19:09;;;;;;;3.60;2.10;;;;;;;;;;4952527;28;20054;-81
2022/03/08 10:21:38;;;;;;;9.10;2.60;;;;;;;;;;4941628;28;20527;-78
2022/03/08 10:24:13;;;;;;;4.72;2.58;;;;;;;;;;4963138;28;20047;-78
2022/03/08 10:26:51;;;;;;;7.03;2.80;;;;;;;;;;4961754;28;20051;-78
2022/03/08 10:29:27;;;;;;;7.07;2.35;;;;;;;;;;4951308;28;20043;-78
2022/03/08 10:32:19;;;;;;;5.95;2.80;;;;;;;;;;4943737;28;20045;-78
2022/03/08 10:34:46;;;;;;;6.07;3.08;;;;;;;;;;4955860;28;20039;-78
2022/03/08 10:37:17;;;;;;;4.85;3.00;;;;;;;;;;4913101;28;20039;-78
2022/03/08 10:39:57;;;;;;;7.88;2.83;;;;;;;;;;4966376;28;20034;-78
2022/03/08 10:42:25;;;;;;;5.05;3.10;;;;;;;;;;4919694;28;20039;-78
2022/03/08 10:44:53;;;;;;;4.60;3.05;;;;;;;;;;4965622;28;20524;-78
2022/03/08 10:47:18;;;;;;;4.70;2.65;;;;;;;;;;4964750;28;20123;-78
2022/03/08 10:50:02;;;;;;;4.13;2.88;;;;;;;;;;4956340;28;20046;-79
2022/03/08 10:52:33;;;;;;;6.25;2.78;;;;;;;;;;4947162;28;20098;-79
2022/03/08 10:55:13;;;;;;;3.47;2.83;;;;;;;;;;4957067;28;20232;-78
2022/03/08 10:57:40;;;;;;;5.07;3.00;;;;;;;;;;4948835;28;20043;-79
2022/03/08 11:00:14;;;;;;;3.75;2.30;;;;;;;;;;4944133;28;20047;-78
2022/03/08 11:03:05;;;;;;;2.97;2.03;;;;;;;;;;4957793;28;20039;-80
2022/03/08 11:05:38;;;;;;;3.22;2.35;;;;;;;;;;4964966;28;20447;-79
2022/03/08 11:08:05;;;;;;;6.53;2.72;;;;;;;;;;4965927;28;20110;-80
2022/03/08 11:10:32;;;;;;;4.65;2.70;;;;;;;;;;4958208;28;20039;-80
2022/03/08 11:12:58;;;;;;;5.00;2.22;;;;;;;;;;4947283;28;20040;-80
2022/03/08 11:15:26;;;;;;;2.67;2.40;;;;;;;;;;4949993;28;20065;-79
2022/03/08 11:17:53;;;;;;;5.05;2.05;;;;;;;;;;4964006;28;20039;-79
2022/03/08 11:20:21;;;;;;;6.82;2.17;;;;;;;;;;4958062;28;20210;-79
2022/03/08 11:22:48;;;;;;;4.80;2.30;;;;;;;;;;4962079;28;20455;-79
2022/03/08 11:25:17;;;;;;;3.75;2.40;;;;;;;;;;4957002;28;20162;-81
2022/03/08 11:27:45;;;;;;;5.35;2.10;;;;;;;;;;4947047;28;20053;-81
2022/03/08 11:30:15;;;;;;;4.82;2.30;;;;;;;;;;4964311;28;20043;-81
2022/03/08 11:32:58;;;;;;;2.65;2.10;;;;;;;;;;4949450;28;20488;-81
2022/03/08 11:35:35;;;;;;;3.58;2.63;;;;;;;;;;4949345;28;20085;-80
2022/03/08 11:38:01;;;;;;;6.65;2.60;;;;;;;;;;4926621;28;20050;-80
2022/03/08 11:40:27;;;;;;;3.38;2.45;;;;;;;;;;4955995;28;20058;-81
2022/03/08 11:42:55;;;;;;;5.13;2.55;;;;;;;;;;4947614;28;20099;-81
2022/03/08 11:45:24;;;;;;;3.88;2.63;;;;;;;;;;4957688;28;20043;-80
2022/03/08 11:47:58;;;;;;;4.18;2.75;;;;;;;;;;4960689;28;20043;-80
2022/03/08 11:50:39;;;;;;;6.40;2.85;;;;;;;;;;4947557;28;20449;-81
2022/03/08 11:53:09;;;;;;;2.70;2.03;;;;;;;;;;4945930;28;20106;-81
2022/03/08 11:55:44;;;;;;;4.07;2.30;;;;;;;;;;4934205;28;20045;-82
2022/03/08 11:58:11;;;;;;;5.55;2.15;;;;;;;;;;4944741;28;20058;-82
2022/03/08 12:00:57;;;;;;;3.75;2.40;;;;;;;;;;4951271;28;20058;-80
2022/03/08 12:03:23;;;;;;;;;;;;;;;;;;4948272;28;20054;-79
2022/03/08 12:06:00;;;;;;;6.22;2.47;;;;;;;;;;4949147;28;19918;-79
2022/03/08 12:08:28;;;;;;;3.47;1.58;;;;;;;;;;4975045;28;20229;-78
2022/03/08 12:11:00;;;;;;;2.22;1.90;;;;;;;;;;4954023;28;20046;-79
2022/03/08 12:13:31;;;;;;;3.63;2.13;;;;;;;;;;4947040;28;20049;-80
2022/03/08 12:16:08;;;;;;;3.10;2.45;;;;;;;;;;4940871;28;20042;-81
2022/03/08 12:18:49;;;;;;;4.35;2.30;;;;;;;;;;4983917;28;20505;-81
2022/03/08 12:21:21;;;;;;;2.55;2.20;;;;;;;;;;4954151;28;20424;-81
2022/03/08 12:23:51;;;;;;;1.75;1.25;;;;;;;;;;4954558;28;20043;-81
2022/03/08 12:26:36;;;;;;;3.08;1.75;;;;;;;;;;4944688;28;20489;-80
2022/03/08 12:29:07;;;;;;;2.25;1.40;;;;;;;;;;4967417;28;20500;-81
2022/03/08 12:31:34;;;;;;;1.73;1.17;;;;;;;;;;4964671;28;20544;-81
2022/03/08 12:34:06;;;;;;;2.85;1.33;;;;;;;;;;4931849;28;20115;-81
2022/03/08 12:36:34;;;;;;;4.07;1.95;;;;;;;;;;4940033;28;20058;-82
2022/03/08 12:39:00;;;;;;;2.22;1.52;;;;;;;;;;4952773;28;20139;-81
2022/03/08 12:41:27;;;;;;;8.38;1.70;;;;;;;;;;4949537;28;20471;-81
2022/03/08 12:44:02;;;;;;;5.20;1.80;;;;;;;;;;4943531;28;20042;-80
2022/03/08 12:46:28;;;;;;;3.75;1.92;;;;;;;;;;4959975;28;20031;-80
2022/03/08 12:48:54;;;;;;;4.57;1.55;;;;;;;;;;4938351;28;20043;-79
2022/03/08 12:51:23;;;;;;;3.50;1.73;;;;;;;;;;4934603;28;20412;-79
2022/03/08 12:53:57;;;;;;;3.83;1.63;;;;;;;;;;4949728;28;20036;-79
2022/03/08 12:56:24;;;;;;;4.53;1.98;;;;;;;;;;4949773;28;20074;-79
2022/03/08 12:58:50;;;;;;;3.97;1.60;;;;;;;;;;4946067;28;20045;-79
2022/03/08 13:01:16;;;;;;;2.83;1.55;;;;;;;;;;4943349;28;20118;-80
2022/03/08 13:03:47;;;;;;;5.30;2.20;;;;;;;;;;4939217;28;20413;-80
2022/03/08 13:06:12;;;;;;;3.00;1.48;;;;;;;;;;4964183;28;20039;-80
2022/03/08 13:08:40;;;;;;;3.33;1.60;;;;;;;;;;4949955;28;20042;-81
2022/03/08 13:11:08;;;;;;;4.20;1.58;;;;;;;;;;4948542;28;20049;-80
2022/03/08 13:13:37;;;;;;;4.38;1.73;;;;;;;;;;4964023;28;20049;-81
2022/03/08 13:16:04;;;;;;;3.60;1.55;;;;;;;;;;4948593;28;20074;-81
2022/03/08 13:18:36;;;;;;;3.60;1.90;;;;;;;;;;4948339;28;20030;-79
2022/03/08 13:21:03;;;;;;;3.08;1.92;;;;;;;;;;4945726;28;20378;-80
2022/03/08 13:23:35;;;;;;;5.40;1.45;;;;;;;;;;4939549;28;20034;-80
2022/03/08 13:26:02;;;;;;;3.22;1.42;;;;;;;;;;4936797;28;20508;-80
2022/03/08 13:28:33;;;;;;;2.08;1.42;;;;;;;;;;4948314;28;20114;-79
2022/03/08 13:31:01;;;;;;;1.60;1.50;;;;;;;;;;4947928;28;20058;-79
2022/03/08 13:33:29;;;;;;;2.88;1.40;;;;;;;;;;4944483;28;20039;-80
2022/03/08 13:36:06;;;;;;;2.80;1.25;;;;;;;;;;4940468;28;20068;-79
2022/03/08 13:38:34;;;;;;;1.48;1.20;;;;;;;;;;4929182;28;20469;-80
2022/03/08 13:41:15;;;;;;;4.00;1.27;;;;;;;;;;4939249;28;20135;-80
2022/03/08 13:43:46;;;;;;;6.47;1.30;;;;;;;;;;4946153;28;20036;-80
2022/03/08 13:46:23;;;;;;;2.42;1.25;;;;;;;;;;4964757;28;20507;-81
2022/03/08 13:49:05;;;;;;;1.75;1.42;;;;;;;;;;4943593;28;20345;-81
2022/03/08 13:51:33;;;;;;;2.40;1.55;;;;;;;;;;4963019;28;20050;-80
2022/03/08 13:53:59;;;;;;;1.58;0.95;;;;;;;;;;4965630;28;20043;-82
2022/03/08 13:56:26;;;;;;;2.75;1.55;;;;;;;;;;4948374;28;20464;-80
2022/03/08 13:58:58;;;;;;;1.55;0.80;;;;;;;;;;4948139;28;20037;-80
2022/03/08 14:01:25;;;;;;;1.58;1.20;;;;;;;;;;4932052;28;20087;-80
2022/03/08 14:03:57;;;;;;;1.75;1.00;;;;;;;;;;4927895;28;20036;-81
2022/03/08 14:06:28;;;;;;;2.13;1.45;;;;;;;;;;4937620;28;20136;-83
2022/03/08 14:09:01;;;;;;;3.28;1.70;;;;;;;;;;4950305;28;20465;-79
2022/03/08 14:11:27;;;;;;;2.17;1.60;;;;;;;;;;4949686;28;20042;-80
2022/03/08 14:14:00;;;;;;;2.05;1.60;;;;;;;;;;4935719;28;20043;-79
2022/03/08 14:16:38;;;;;;;2.33;1.38;;;;;;;;;;4960098;28;20046;-81
2022/03/08 14:19:04;;;;;;;3.67;1.70;;;;;;;;;;4954498;28;20085;-81
2022/03/08 14:21:33;;;;;;;3.85;1.50;;;;;;;;;;4946778;28;20038;-82
2022/03/08 14:24:15;;;;;;;1.60;1.35;;;;;;;;;;4947912;28;20476;-79
2022/03/08 14:27:06;;;;;;;2.65;1.58;;;;;;;;;;4979658;28;20043;-79
2022/03/08 14:29:34;;;;;;;4.63;1.83;;;;;;;;;;4975962;28;20046;-79
2022/03/08 14:32:03;;;;;;;2.30;1.75;;;;;;;;;;4946989;28;20372;-80
2022/03/08 14:34:31;;;;;;;3.65;2.10;;;;;;;;;;4964288;28;20507;-80
2022/03/08 14:36:59;;;;;;;2.17;1.80;;;;;;;;;;4943684;28;20067;-80
2022/03/08 14:39:33;;;;;;;2.30;2.00;;;;;;;;;;4963461;28;20047;-79
2022/03/08 14:42:03;;;;;;;2.55;2.00;;;;;;;;;;4949180;28;20050;-79